sensor_id;sensor_type;location;lat;lon;timestamp;P1;durP1;ratioP1;P2;durP2;ratioP2
31130;SDS011;20292;50.944;4.034;2022-07-04T00:00:48;6.10;;;2.38;;
31130;SDS011;20292;50.944;4.034;2022-07-04T00:03:13;8.43;;;2.05;;
31130;SDS011;20292;50.944;4.034;2022-07-04T00:05:39;6.65;;;1.70;;
31130;SDS011;20292;50.944;4.034;2022-07-04T00:08:05;6.35;;;1.95;;
31130;SDS011;20292;50.944;4.034;2022-07-04T00:10:30;7.07;;;1.80;;
31130;SDS011;20292;50.944;4.034;2022-07-04T00:12:56;3.55;;;1.52;;
31130;SDS011;20292;50.944;4.034;2022-07-04T00:15:22;4.75;;;1.60;;
31130;SDS011;20292;50.944;4.034;2022-07-04T00:17:48;4.85;;;1.50;;
31130;SDS011;20292;50.944;4.034;2022-07-04T00:20:14;8.05;;;1.88;;
31130;SDS011;20292;50.944;4.034;2022-07-04T00:22:40;7.05;;;1.85;;
31130;SDS011;20292;50.944;4.034;2022-07-04T00:25:06;4.75;;;1.80;;
31130;SDS011;20292;50.944;4.034;2022-07-04T00:27:32;5.85;;;1.65;;
31130;SDS011;20292;50.944;4.034;2022-07-04T00:29:57;2.72;;;1.38;;
31130;SDS011;20292;50.944;4.034;2022-07-04T00:32:23;3.92;;;1.67;;
31130;SDS011;20292;50.944;4.034;2022-07-04T00:34:48;5.10;;;1.90;;
31130;SDS011;20292;50.944;4.034;2022-07-04T00:37:14;7.72;;;1.85;;
31130;SDS011;20292;50.944;4.034;2022-07-04T00:39:40;7.95;;;1.80;;
31130;SDS011;20292;50.944;4.034;2022-07-04T00:42:06;5.55;;;1.83;;
31130;SDS011;20292;50.944;4.034;2022-07-04T00:44:32;5.43;;;1.63;;
31130;SDS011;20292;50.944;4.034;2022-07-04T00:47:01;5.78;;;1.30;;
31130;SDS011;20292;50.944;4.034;2022-07-04T00:49:28;10.98;;;1.98;;
31130;SDS011;20292;50.944;4.034;2022-07-04T00:51:54;8.35;;;1.70;;
31130;SDS011;20292;50.944;4.034;2022-07-04T00:54:20;2.65;;;1.45;;
31130;SDS011;20292;50.944;4.034;2022-07-04T00:56:51;5.28;;;1.60;;
31130;SDS011;20292;50.944;4.034;2022-07-04T00:59:18;7.03;;;1.50;;
31130;SDS011;20292;50.944;4.034;2022-07-04T01:01:44;5.68;;;1.60;;
31130;SDS011;20292;50.944;4.034;2022-07-04T01:04:10;6.22;;;1.70;;
31130;SDS011;20292;50.944;4.034;2022-07-04T01:06:36;5.30;;;1.58;;
31130;SDS011;20292;50.944;4.034;2022-07-04T01:09:02;8.73;;;2.15;;
31130;SDS011;20292;50.944;4.034;2022-07-04T01:11:29;4.30;;;1.60;;
31130;SDS011;20292;50.944;4.034;2022-07-04T01:13:55;5.10;;;1.42;;
31130;SDS011;20292;50.944;4.034;2022-07-04T01:16:21;4.35;;;1.52;;
31130;SDS011;20292;50.944;4.034;2022-07-04T01:18:50;2.78;;;1.30;;
31130;SDS011;20292;50.944;4.034;2022-07-04T01:21:17;3.78;;;1.70;;
31130;SDS011;20292;50.944;4.034;2022-07-04T01:23:43;5.28;;;1.65;;
31130;SDS011;20292;50.944;4.034;2022-07-04T01:26:09;10.95;;;2.13;;
31130;SDS011;20292;50.944;4.034;2022-07-04T01:28:36;5.10;;;1.58;;
31130;SDS011;20292;50.944;4.034;2022-07-04T01:31:02;5.82;;;2.00;;
31130;SDS011;20292;50.944;4.034;2022-07-04T01:33:28;6.15;;;1.90;;
31130;SDS011;20292;50.944;4.034;2022-07-04T01:35:53;4.90;;;1.95;;
31130;SDS011;20292;50.944;4.034;2022-07-04T01:38:19;3.45;;;2.00;;
31130;SDS011;20292;50.944;4.034;2022-07-04T01:40:45;6.18;;;1.90;;
31130;SDS011;20292;50.944;4.034;2022-07-04T01:43:11;5.93;;;1.80;;
31130;SDS011;20292;50.944;4.034;2022-07-04T01:45:36;4.88;;;2.10;;
31130;SDS011;20292;50.944;4.034;2022-07-04T01:48:11;4.80;;;2.00;;
31130;SDS011;20292;50.944;4.034;2022-07-04T01:50:38;7.28;;;2.45;;
31130;SDS011;20292;50.944;4.034;2022-07-04T01:53:04;5.05;;;2.08;;
31130;SDS011;20292;50.944;4.034;2022-07-04T01:55:30;3.65;;;1.80;;
31130;SDS011;20292;50.944;4.034;2022-07-04T01:57:55;4.75;;;1.80;;
31130;SDS011;20292;50.944;4.034;2022-07-04T02:00:21;7.85;;;2.15;;
31130;SDS011;20292;50.944;4.034;2022-07-04T02:03:07;3.83;;;2.03;;
31130;SDS011;20292;50.944;4.034;2022-07-04T02:05:33;5.82;;;2.00;;
31130;SDS011;20292;50.944;4.034;2022-07-04T02:07:58;4.13;;;1.80;;
31130;SDS011;20292;50.944;4.034;2022-07-04T02:10:24;4.22;;;2.08;;
31130;SDS011;20292;50.944;4.034;2022-07-04T02:12:50;4.28;;;2.03;;
31130;SDS011;20292;50.944;4.034;2022-07-04T02:18:06;6.80;;;2.28;;
31130;SDS011;20292;50.944;4.034;2022-07-04T02:20:33;6.88;;;2.30;;
31130;SDS011;20292;50.944;4.034;2022-07-04T02:22:59;5.47;;;2.63;;
31130;SDS011;20292;50.944;4.034;2022-07-04T02:25:25;7.45;;;2.30;;
31130;SDS011;20292;50.944;4.034;2022-07-04T02:27:51;7.38;;;2.25;;
31130;SDS011;20292;50.944;4.034;2022-07-04T02:30:17;5.28;;;2.08;;
31130;SDS011;20292;50.944;4.034;2022-07-04T02:32:43;5.63;;;1.90;;
31130;SDS011;20292;50.944;4.034;2022-07-04T02:35:09;6.72;;;2.20;;
31130;SDS011;20292;50.944;4.034;2022-07-04T02:37:35;7.40;;;2.33;;
31130;SDS011;20292;50.944;4.034;2022-07-04T02:40:01;7.95;;;2.28;;
31130;SDS011;20292;50.944;4.034;2022-07-04T02:42:30;9.05;;;2.60;;
31130;SDS011;20292;50.944;4.034;2022-07-04T02:44:57;7.75;;;2.63;;
31130;SDS011;20292;50.944;4.034;2022-07-04T02:47:22;5.82;;;2.50;;
31130;SDS011;20292;50.944;4.034;2022-07-04T02:49:48;7.25;;;2.20;;
31130;SDS011;20292;50.944;4.034;2022-07-04T02:52:13;6.50;;;2.45;;
31130;SDS011;20292;50.944;4.034;2022-07-04T02:54:40;7.13;;;2.30;;
31130;SDS011;20292;50.944;4.034;2022-07-04T02:57:07;5.40;;;2.22;;
31130;SDS011;20292;50.944;4.034;2022-07-04T02:59:32;9.90;;;2.67;;
31130;SDS011;20292;50.944;4.034;2022-07-04T03:01:58;3.72;;;2.13;;
31130;SDS011;20292;50.944;4.034;2022-07-04T03:04:24;7.72;;;2.22;;
31130;SDS011;20292;50.944;4.034;2022-07-04T03:06:49;8.00;;;2.13;;
31130;SDS011;20292;50.944;4.034;2022-07-04T03:09:15;7.18;;;2.40;;
31130;SDS011;20292;50.944;4.034;2022-07-04T03:11:41;11.30;;;2.67;;
31130;SDS011;20292;50.944;4.034;2022-07-04T03:14:06;6.60;;;2.60;;
31130;SDS011;20292;50.944;4.034;2022-07-04T03:16:32;6.50;;;2.40;;
31130;SDS011;20292;50.944;4.034;2022-07-04T03:18:57;6.65;;;2.25;;
31130;SDS011;20292;50.944;4.034;2022-07-04T03:21:23;6.45;;;2.53;;
31130;SDS011;20292;50.944;4.034;2022-07-04T03:23:48;7.65;;;2.63;;
31130;SDS011;20292;50.944;4.034;2022-07-04T03:26:26;9.13;;;2.33;;
31130;SDS011;20292;50.944;4.034;2022-07-04T03:28:54;6.47;;;2.35;;
31130;SDS011;20292;50.944;4.034;2022-07-04T03:31:20;4.55;;;2.20;;
31130;SDS011;20292;50.944;4.034;2022-07-04T03:33:46;4.88;;;2.00;;
31130;SDS011;20292;50.944;4.034;2022-07-04T03:36:12;7.30;;;2.15;;
31130;SDS011;20292;50.944;4.034;2022-07-04T03:38:38;7.35;;;2.28;;
31130;SDS011;20292;50.944;4.034;2022-07-04T03:41:03;5.05;;;2.00;;
31130;SDS011;20292;50.944;4.034;2022-07-04T03:43:29;9.88;;;2.42;;
31130;SDS011;20292;50.944;4.034;2022-07-04T03:45:55;7.05;;;2.22;;
31130;SDS011;20292;50.944;4.034;2022-07-04T03:48:21;6.60;;;2.30;;
31130;SDS011;20292;50.944;4.034;2022-07-04T03:50:46;4.82;;;1.83;;
31130;SDS011;20292;50.944;4.034;2022-07-04T03:53:12;7.03;;;2.13;;
31130;SDS011;20292;50.944;4.034;2022-07-04T03:55:38;8.48;;;2.45;;
31130;SDS011;20292;50.944;4.034;2022-07-04T03:58:04;5.40;;;1.90;;
31130;SDS011;20292;50.944;4.034;2022-07-04T04:00:30;4.93;;;2.10;;
31130;SDS011;20292;50.944;4.034;2022-07-04T04:02:57;7.90;;;2.20;;
31130;SDS011;20292;50.944;4.034;2022-07-04T04:05:23;7.70;;;1.85;;
31130;SDS011;20292;50.944;4.034;2022-07-04T04:07:55;8.90;;;2.30;;
31130;SDS011;20292;50.944;4.034;2022-07-04T04:10:22;7.80;;;2.45;;
31130;SDS011;20292;50.944;4.034;2022-07-04T04:12:49;7.40;;;2.00;;
31130;SDS011;20292;50.944;4.034;2022-07-04T04:15:15;9.07;;;2.53;;
31130;SDS011;20292;50.944;4.034;2022-07-04T04:17:41;8.77;;;2.13;;
31130;SDS011;20292;50.944;4.034;2022-07-04T04:20:07;8.20;;;2.25;;
31130;SDS011;20292;50.944;4.034;2022-07-04T04:22:33;8.45;;;2.60;;
31130;SDS011;20292;50.944;4.034;2022-07-04T04:24:59;8.75;;;2.58;;
31130;SDS011;20292;50.944;4.034;2022-07-04T04:27:25;8.57;;;2.20;;
31130;SDS011;20292;50.944;4.034;2022-07-04T04:29:51;8.48;;;2.20;;
31130;SDS011;20292;50.944;4.034;2022-07-04T04:32:16;6.13;;;2.55;;
31130;SDS011;20292;50.944;4.034;2022-07-04T04:34:42;7.93;;;2.67;;
31130;SDS011;20292;50.944;4.034;2022-07-04T04:37:08;8.05;;;2.30;;
31130;SDS011;20292;50.944;4.034;2022-07-04T04:39:33;6.57;;;2.10;;
31130;SDS011;20292;50.944;4.034;2022-07-04T04:41:59;11.20;;;2.15;;
31130;SDS011;20292;50.944;4.034;2022-07-04T04:44:24;9.50;;;2.90;;
31130;SDS011;20292;50.944;4.034;2022-07-04T04:46:50;6.10;;;2.17;;
31130;SDS011;20292;50.944;4.034;2022-07-04T04:49:16;7.45;;;2.05;;
31130;SDS011;20292;50.944;4.034;2022-07-04T04:51:42;5.25;;;1.95;;
31130;SDS011;20292;50.944;4.034;2022-07-04T04:54:08;6.03;;;2.25;;
31130;SDS011;20292;50.944;4.034;2022-07-04T04:56:33;8.10;;;2.35;;
31130;SDS011;20292;50.944;4.034;2022-07-04T04:58:59;8.23;;;2.40;;
31130;SDS011;20292;50.944;4.034;2022-07-04T05:01:25;6.82;;;2.28;;
31130;SDS011;20292;50.944;4.034;2022-07-04T05:03:50;6.20;;;2.05;;
31130;SDS011;20292;50.944;4.034;2022-07-04T05:06:16;7.47;;;2.03;;
31130;SDS011;20292;50.944;4.034;2022-07-04T05:08:43;6.20;;;2.00;;
31130;SDS011;20292;50.944;4.034;2022-07-04T05:11:09;12.98;;;2.70;;
31130;SDS011;20292;50.944;4.034;2022-07-04T05:13:34;8.07;;;2.50;;
31130;SDS011;20292;50.944;4.034;2022-07-04T05:16:00;7.53;;;2.15;;
31130;SDS011;20292;50.944;4.034;2022-07-04T05:18:25;5.43;;;1.92;;
31130;SDS011;20292;50.944;4.034;2022-07-04T05:20:51;7.38;;;2.40;;
31130;SDS011;20292;50.944;4.034;2022-07-04T05:23:17;7.65;;;2.35;;
31130;SDS011;20292;50.944;4.034;2022-07-04T05:25:42;9.23;;;2.30;;
31130;SDS011;20292;50.944;4.034;2022-07-04T05:28:08;4.45;;;2.03;;
31130;SDS011;20292;50.944;4.034;2022-07-04T05:30:33;5.32;;;2.15;;
31130;SDS011;20292;50.944;4.034;2022-07-04T05:32:59;7.43;;;2.55;;
31130;SDS011;20292;50.944;4.034;2022-07-04T05:35:26;10.27;;;2.60;;
31130;SDS011;20292;50.944;4.034;2022-07-04T05:37:52;6.85;;;1.95;;
31130;SDS011;20292;50.944;4.034;2022-07-04T05:40:18;9.82;;;2.35;;
31130;SDS011;20292;50.944;4.034;2022-07-04T05:42:46;7.90;;;2.03;;
31130;SDS011;20292;50.944;4.034;2022-07-04T05:45:12;7.28;;;2.22;;
31130;SDS011;20292;50.944;4.034;2022-07-04T05:47:37;8.55;;;2.75;;
31130;SDS011;20292;50.944;4.034;2022-07-04T05:50:03;9.65;;;2.40;;
31130;SDS011;20292;50.944;4.034;2022-07-04T05:52:29;7.43;;;2.10;;
31130;SDS011;20292;50.944;4.034;2022-07-04T05:54:54;9.07;;;2.60;;
31130;SDS011;20292;50.944;4.034;2022-07-04T05:57:20;7.63;;;2.53;;
31130;SDS011;20292;50.944;4.034;2022-07-04T05:59:46;8.98;;;2.50;;
31130;SDS011;20292;50.944;4.034;2022-07-04T06:02:11;14.18;;;2.75;;
31130;SDS011;20292;50.944;4.034;2022-07-04T06:04:38;8.23;;;2.50;;
31130;SDS011;20292;50.944;4.034;2022-07-04T06:07:03;7.65;;;2.75;;
31130;SDS011;20292;50.944;4.034;2022-07-04T06:09:29;8.45;;;2.53;;
31130;SDS011;20292;50.944;4.034;2022-07-04T06:11:54;12.40;;;3.25;;
31130;SDS011;20292;50.944;4.034;2022-07-04T06:14:20;6.93;;;2.25;;
31130;SDS011;20292;50.944;4.034;2022-07-04T06:16:46;10.00;;;2.83;;
31130;SDS011;20292;50.944;4.034;2022-07-04T06:19:11;9.77;;;3.13;;
31130;SDS011;20292;50.944;4.034;2022-07-04T06:21:37;10.65;;;2.72;;
31130;SDS011;20292;50.944;4.034;2022-07-04T06:24:02;9.75;;;2.90;;
31130;SDS011;20292;50.944;4.034;2022-07-04T06:26:29;10.95;;;3.08;;
31130;SDS011;20292;50.944;4.034;2022-07-04T06:28:55;12.65;;;3.53;;
31130;SDS011;20292;50.944;4.034;2022-07-04T06:31:22;9.38;;;3.42;;
31130;SDS011;20292;50.944;4.034;2022-07-04T06:33:47;9.75;;;3.42;;
31130;SDS011;20292;50.944;4.034;2022-07-04T06:36:31;14.77;;;3.85;;
31130;SDS011;20292;50.944;4.034;2022-07-04T06:38:58;9.13;;;3.97;;
31130;SDS011;20292;50.944;4.034;2022-07-04T06:41:24;11.85;;;4.70;;
31130;SDS011;20292;50.944;4.034;2022-07-04T06:43:49;8.93;;;4.50;;
31130;SDS011;20292;50.944;4.034;2022-07-04T06:46:15;14.68;;;5.20;;
31130;SDS011;20292;50.944;4.034;2022-07-04T06:48:41;13.48;;;5.38;;
31130;SDS011;20292;50.944;4.034;2022-07-04T06:51:06;10.80;;;4.95;;
31130;SDS011;20292;50.944;4.034;2022-07-04T06:53:32;15.13;;;6.05;;
31130;SDS011;20292;50.944;4.034;2022-07-04T06:55:57;15.18;;;5.47;;
31130;SDS011;20292;50.944;4.034;2022-07-04T06:58:23;13.70;;;5.43;;
31130;SDS011;20292;50.944;4.034;2022-07-04T07:00:49;15.27;;;5.75;;
31130;SDS011;20292;50.944;4.034;2022-07-04T07:03:14;18.17;;;5.85;;
31130;SDS011;20292;50.944;4.034;2022-07-04T07:05:40;14.63;;;5.30;;
31130;SDS011;20292;50.944;4.034;2022-07-04T07:08:05;11.80;;;5.63;;
31130;SDS011;20292;50.944;4.034;2022-07-04T07:10:31;12.63;;;5.72;;
31130;SDS011;20292;50.944;4.034;2022-07-04T07:13:01;14.45;;;5.93;;
31130;SDS011;20292;50.944;4.034;2022-07-04T07:15:27;15.93;;;5.53;;
31130;SDS011;20292;50.944;4.034;2022-07-04T07:17:53;13.55;;;5.45;;
31130;SDS011;20292;50.944;4.034;2022-07-04T07:20:18;15.88;;;6.13;;
31130;SDS011;20292;50.944;4.034;2022-07-04T07:22:44;14.43;;;5.60;;
31130;SDS011;20292;50.944;4.034;2022-07-04T07:25:10;15.48;;;5.65;;
31130;SDS011;20292;50.944;4.034;2022-07-04T07:27:36;14.73;;;5.70;;
31130;SDS011;20292;50.944;4.034;2022-07-04T07:30:03;13.90;;;6.00;;
31130;SDS011;20292;50.944;4.034;2022-07-04T07:32:29;13.80;;;5.43;;
31130;SDS011;20292;50.944;4.034;2022-07-04T07:34:55;11.65;;;5.43;;
31130;SDS011;20292;50.944;4.034;2022-07-04T07:37:21;13.02;;;5.25;;
31130;SDS011;20292;50.944;4.034;2022-07-04T07:39:47;13.85;;;5.60;;
31130;SDS011;20292;50.944;4.034;2022-07-04T07:42:13;15.20;;;5.05;;
31130;SDS011;20292;50.944;4.034;2022-07-04T07:44:39;17.60;;;5.50;;
31130;SDS011;20292;50.944;4.034;2022-07-04T07:47:04;10.13;;;4.60;;
31130;SDS011;20292;50.944;4.034;2022-07-04T07:49:30;14.43;;;5.55;;
31130;SDS011;20292;50.944;4.034;2022-07-04T07:51:56;10.52;;;4.50;;
31130;SDS011;20292;50.944;4.034;2022-07-04T07:54:21;11.85;;;5.03;;
31130;SDS011;20292;50.944;4.034;2022-07-04T07:56:47;11.07;;;4.20;;
31130;SDS011;20292;50.944;4.034;2022-07-04T07:59:12;10.48;;;4.10;;
31130;SDS011;20292;50.944;4.034;2022-07-04T08:01:38;8.18;;;3.53;;
31130;SDS011;20292;50.944;4.034;2022-07-04T08:04:03;11.52;;;3.33;;
31130;SDS011;20292;50.944;4.034;2022-07-04T08:06:48;6.55;;;2.92;;
31130;SDS011;20292;50.944;4.034;2022-07-04T08:09:13;9.85;;;3.03;;
31130;SDS011;20292;50.944;4.034;2022-07-04T08:11:40;6.88;;;2.70;;
31130;SDS011;20292;50.944;4.034;2022-07-04T08:14:06;11.55;;;3.13;;
31130;SDS011;20292;50.944;4.034;2022-07-04T08:16:32;10.30;;;2.95;;
31130;SDS011;20292;50.944;4.034;2022-07-04T08:18:58;6.40;;;2.90;;
31130;SDS011;20292;50.944;4.034;2022-07-04T08:21:24;8.15;;;2.70;;
31130;SDS011;20292;50.944;4.034;2022-07-04T08:23:50;7.93;;;2.72;;
31130;SDS011;20292;50.944;4.034;2022-07-04T08:26:16;8.07;;;3.33;;
31130;SDS011;20292;50.944;4.034;2022-07-04T08:28:41;14.07;;;7.07;;
31130;SDS011;20292;50.944;4.034;2022-07-04T08:31:07;8.18;;;3.20;;
31130;SDS011;20292;50.944;4.034;2022-07-04T08:33:33;6.35;;;2.22;;
31130;SDS011;20292;50.944;4.034;2022-07-04T08:35:58;7.05;;;2.40;;
31130;SDS011;20292;50.944;4.034;2022-07-04T08:38:24;6.85;;;2.60;;
31130;SDS011;20292;50.944;4.034;2022-07-04T08:40:51;7.07;;;2.70;;
31130;SDS011;20292;50.944;4.034;2022-07-04T08:43:24;7.50;;;2.78;;
31130;SDS011;20292;50.944;4.034;2022-07-04T08:45:52;5.97;;;2.40;;
31130;SDS011;20292;50.944;4.034;2022-07-04T08:48:21;5.13;;;2.40;;
31130;SDS011;20292;50.944;4.034;2022-07-04T08:50:50;9.52;;;2.35;;
31130;SDS011;20292;50.944;4.034;2022-07-04T08:53:21;4.30;;;2.05;;
31130;SDS011;20292;50.944;4.034;2022-07-04T08:55:49;6.88;;;2.22;;
31130;SDS011;20292;50.944;4.034;2022-07-04T09:01:01;6.75;;;2.50;;
31130;SDS011;20292;50.944;4.034;2022-07-04T09:03:29;8.55;;;3.17;;
31130;SDS011;20292;50.944;4.034;2022-07-04T09:05:55;8.93;;;2.70;;
31130;SDS011;20292;50.944;4.034;2022-07-04T09:08:22;8.30;;;2.92;;
31130;SDS011;20292;50.944;4.034;2022-07-04T09:10:49;7.43;;;2.55;;
31130;SDS011;20292;50.944;4.034;2022-07-04T09:13:15;12.73;;;3.30;;
31130;SDS011;20292;50.944;4.034;2022-07-04T09:15:46;4.47;;;2.08;;
31130;SDS011;20292;50.944;4.034;2022-07-04T09:20:52;3.42;;;1.98;;
31130;SDS011;20292;50.944;4.034;2022-07-04T09:23:19;6.20;;;2.38;;
31130;SDS011;20292;50.944;4.034;2022-07-04T09:25:47;7.50;;;2.55;;
31130;SDS011;20292;50.944;4.034;2022-07-04T09:28:31;8.93;;;2.40;;
31130;SDS011;20292;50.944;4.034;2022-07-04T09:30:56;9.02;;;2.80;;
31130;SDS011;20292;50.944;4.034;2022-07-04T09:33:29;6.78;;;2.75;;
31130;SDS011;20292;50.944;4.034;2022-07-04T09:36:11;9.05;;;3.00;;
31130;SDS011;20292;50.944;4.034;2022-07-04T09:38:38;4.78;;;2.60;;
31130;SDS011;20292;50.944;4.034;2022-07-04T09:41:03;6.18;;;2.20;;
31130;SDS011;20292;50.944;4.034;2022-07-04T09:44:01;5.30;;;2.17;;
31130;SDS011;20292;50.944;4.034;2022-07-04T09:46:29;4.78;;;2.42;;
31130;SDS011;20292;50.944;4.034;2022-07-04T09:48:55;7.13;;;2.50;;
31130;SDS011;20292;50.944;4.034;2022-07-04T09:59:14;5.65;;;2.00;;
31130;SDS011;20292;50.944;4.034;2022-07-04T10:01:40;7.20;;;2.00;;
31130;SDS011;20292;50.944;4.034;2022-07-04T10:04:06;8.52;;;2.20;;
31130;SDS011;20292;50.944;4.034;2022-07-04T10:06:33;7.57;;;2.35;;
31130;SDS011;20292;50.944;4.034;2022-07-04T10:09:06;6.07;;;2.03;;
31130;SDS011;20292;50.944;4.034;2022-07-04T10:11:37;4.75;;;2.03;;
31130;SDS011;20292;50.944;4.034;2022-07-04T10:14:04;5.40;;;1.95;;
31130;SDS011;20292;50.944;4.034;2022-07-04T10:16:31;6.57;;;2.47;;
31130;SDS011;20292;50.944;4.034;2022-07-04T10:18:57;6.32;;;2.15;;
31130;SDS011;20292;50.944;4.034;2022-07-04T10:21:23;7.32;;;2.42;;
31130;SDS011;20292;50.944;4.034;2022-07-04T10:23:49;6.57;;;2.30;;
31130;SDS011;20292;50.944;4.034;2022-07-04T10:26:20;9.05;;;2.55;;
31130;SDS011;20292;50.944;4.034;2022-07-04T10:28:46;6.28;;;2.78;;
31130;SDS011;20292;50.944;4.034;2022-07-04T10:31:14;4.93;;;2.42;;
31130;SDS011;20292;50.944;4.034;2022-07-04T10:33:40;7.50;;;3.03;;
31130;SDS011;20292;50.944;4.034;2022-07-04T10:36:27;6.85;;;2.80;;
31130;SDS011;20292;50.944;4.034;2022-07-04T10:39:00;8.63;;;2.47;;
31130;SDS011;20292;50.944;4.034;2022-07-04T10:41:28;5.13;;;2.53;;
31130;SDS011;20292;50.944;4.034;2022-07-04T10:43:56;9.27;;;2.70;;
31130;SDS011;20292;50.944;4.034;2022-07-04T10:49:01;4.50;;;2.40;;
31130;SDS011;20292;50.944;4.034;2022-07-04T10:54:28;9.18;;;2.50;;
31130;SDS011;20292;50.944;4.034;2022-07-04T11:00:01;13.18;;;3.83;;
31130;SDS011;20292;50.944;4.034;2022-07-04T11:02:30;6.05;;;2.72;;
31130;SDS011;20292;50.944;4.034;2022-07-04T11:05:01;9.98;;;2.72;;
31130;SDS011;20292;50.944;4.034;2022-07-04T11:17:57;5.78;;;2.03;;
31130;SDS011;20292;50.944;4.034;2022-07-04T11:20:28;4.07;;;1.60;;
31130;SDS011;20292;50.944;4.034;2022-07-04T11:23:07;5.00;;;2.17;;
31130;SDS011;20292;50.944;4.034;2022-07-04T11:25:38;6.47;;;1.90;;
31130;SDS011;20292;50.944;4.034;2022-07-04T11:28:20;8.68;;;2.13;;
31130;SDS011;20292;50.944;4.034;2022-07-04T11:30:54;8.00;;;1.90;;
31130;SDS011;20292;50.944;4.034;2022-07-04T11:33:26;9.88;;;2.10;;
31130;SDS011;20292;50.944;4.034;2022-07-04T11:36:10;6.65;;;2.55;;
31130;SDS011;20292;50.944;4.034;2022-07-04T11:41:25;7.30;;;2.30;;
31130;SDS011;20292;50.944;4.034;2022-07-04T11:44:12;4.30;;;1.77;;
31130;SDS011;20292;50.944;4.034;2022-07-04T11:49:51;6.68;;;2.00;;
31130;SDS011;20292;50.944;4.034;2022-07-04T11:52:19;5.40;;;1.67;;
31130;SDS011;20292;50.944;4.034;2022-07-04T11:54:46;7.15;;;2.08;;
31130;SDS011;20292;50.944;4.034;2022-07-04T11:57:18;8.50;;;2.33;;
31130;SDS011;20292;50.944;4.034;2022-07-04T12:00:05;9.07;;;2.05;;
31130;SDS011;20292;50.944;4.034;2022-07-04T12:02:33;3.72;;;1.75;;
31130;SDS011;20292;50.944;4.034;2022-07-04T12:05:00;3.45;;;1.50;;
31130;SDS011;20292;50.944;4.034;2022-07-04T12:07:28;19.63;;;3.20;;
31130;SDS011;20292;50.944;4.034;2022-07-04T12:10:05;10.55;;;2.53;;
31130;SDS011;20292;50.944;4.034;2022-07-04T12:12:55;32.20;;;3.78;;
31130;SDS011;20292;50.944;4.034;2022-07-04T12:18:05;3.10;;;1.50;;
31130;SDS011;20292;50.944;4.034;2022-07-04T12:20:40;10.65;;;2.28;;
31130;SDS011;20292;50.944;4.034;2022-07-04T12:23:05;4.03;;;1.90;;
31130;SDS011;20292;50.944;4.034;2022-07-04T12:25:35;3.65;;;1.75;;
31130;SDS011;20292;50.944;4.034;2022-07-04T12:28:06;7.35;;;2.20;;
31130;SDS011;20292;50.944;4.034;2022-07-04T12:30:38;4.05;;;1.88;;
31130;SDS011;20292;50.944;4.034;2022-07-04T12:33:05;4.63;;;1.73;;
31130;SDS011;20292;50.944;4.034;2022-07-04T12:38:14;4.72;;;1.77;;
31130;SDS011;20292;50.944;4.034;2022-07-04T12:46:14;3.95;;;1.70;;
31130;SDS011;20292;50.944;4.034;2022-07-04T12:48:51;3.85;;;2.00;;
31130;SDS011;20292;50.944;4.034;2022-07-04T12:51:18;3.72;;;1.92;;
31130;SDS011;20292;50.944;4.034;2022-07-04T12:53:46;5.55;;;1.73;;
31130;SDS011;20292;50.944;4.034;2022-07-04T12:58:57;4.65;;;1.92;;
31130;SDS011;20292;50.944;4.034;2022-07-04T13:01:25;6.07;;;2.22;;
31130;SDS011;20292;50.944;4.034;2022-07-04T13:03:51;9.35;;;2.00;;
31130;SDS011;20292;50.944;4.034;2022-07-04T13:06:17;8.45;;;5.57;;
31130;SDS011;20292;50.944;4.034;2022-07-04T13:08:43;6.57;;;1.90;;
31130;SDS011;20292;50.944;4.034;2022-07-04T13:11:09;10.32;;;2.60;;
31130;SDS011;20292;50.944;4.034;2022-07-04T13:13:53;6.88;;;1.88;;
31130;SDS011;20292;50.944;4.034;2022-07-04T13:16:19;4.43;;;1.75;;
31130;SDS011;20292;50.944;4.034;2022-07-04T13:18:44;6.95;;;2.05;;
31130;SDS011;20292;50.944;4.034;2022-07-04T13:21:10;4.07;;;1.90;;
31130;SDS011;20292;50.944;4.034;2022-07-04T13:23:36;7.30;;;2.00;;
31130;SDS011;20292;50.944;4.034;2022-07-04T13:26:02;5.25;;;2.05;;
31130;SDS011;20292;50.944;4.034;2022-07-04T13:28:28;3.50;;;1.58;;
31130;SDS011;20292;50.944;4.034;2022-07-04T13:30:53;6.90;;;2.15;;
31130;SDS011;20292;50.944;4.034;2022-07-04T13:33:19;5.30;;;2.08;;
31130;SDS011;20292;50.944;4.034;2022-07-04T13:35:44;5.13;;;1.95;;
31130;SDS011;20292;50.944;4.034;2022-07-04T13:38:10;4.45;;;1.45;;
31130;SDS011;20292;50.944;4.034;2022-07-04T13:40:36;4.55;;;1.63;;
31130;SDS011;20292;50.944;4.034;2022-07-04T13:43:02;5.82;;;1.90;;
31130;SDS011;20292;50.944;4.034;2022-07-04T13:45:34;5.53;;;1.73;;
31130;SDS011;20292;50.944;4.034;2022-07-04T13:48:00;3.45;;;1.92;;
31130;SDS011;20292;50.944;4.034;2022-07-04T13:50:26;6.28;;;2.40;;
31130;SDS011;20292;50.944;4.034;2022-07-04T13:52:52;6.38;;;2.00;;
31130;SDS011;20292;50.944;4.034;2022-07-04T13:55:17;7.78;;;2.40;;
31130;SDS011;20292;50.944;4.034;2022-07-04T13:57:43;5.68;;;1.90;;
31130;SDS011;20292;50.944;4.034;2022-07-04T14:00:09;6.85;;;2.45;;
31130;SDS011;20292;50.944;4.034;2022-07-04T14:02:35;3.78;;;1.73;;
31130;SDS011;20292;50.944;4.034;2022-07-04T14:05:01;6.20;;;1.98;;
31130;SDS011;20292;50.944;4.034;2022-07-04T14:07:27;8.75;;;2.28;;
31130;SDS011;20292;50.944;4.034;2022-07-04T14:09:53;4.20;;;1.80;;
31130;SDS011;20292;50.944;4.034;2022-07-04T14:12:18;5.75;;;2.28;;
31130;SDS011;20292;50.944;4.034;2022-07-04T14:14:45;11.73;;;2.08;;
31130;SDS011;20292;50.944;4.034;2022-07-04T14:17:11;4.68;;;2.38;;
31130;SDS011;20292;50.944;4.034;2022-07-04T14:19:37;3.85;;;1.67;;
31130;SDS011;20292;50.944;4.034;2022-07-04T14:22:02;6.15;;;1.80;;
31130;SDS011;20292;50.944;4.034;2022-07-04T14:24:28;4.78;;;1.75;;
31130;SDS011;20292;50.944;4.034;2022-07-04T14:26:54;3.78;;;1.80;;
31130;SDS011;20292;50.944;4.034;2022-07-04T14:29:20;6.95;;;1.98;;
31130;SDS011;20292;50.944;4.034;2022-07-04T14:31:46;5.50;;;2.25;;
31130;SDS011;20292;50.944;4.034;2022-07-04T14:34:12;5.03;;;1.50;;
31130;SDS011;20292;50.944;4.034;2022-07-04T14:36:38;7.20;;;2.00;;
31130;SDS011;20292;50.944;4.034;2022-07-04T14:39:04;5.75;;;2.10;;
31130;SDS011;20292;50.944;4.034;2022-07-04T14:41:30;9.05;;;2.25;;
31130;SDS011;20292;50.944;4.034;2022-07-04T14:43:56;5.93;;;1.90;;
31130;SDS011;20292;50.944;4.034;2022-07-04T14:46:22;5.18;;;1.95;;
31130;SDS011;20292;50.944;4.034;2022-07-04T14:48:48;12.95;;;2.58;;
31130;SDS011;20292;50.944;4.034;2022-07-04T14:51:13;6.47;;;2.30;;
31130;SDS011;20292;50.944;4.034;2022-07-04T14:53:41;5.18;;;2.00;;
31130;SDS011;20292;50.944;4.034;2022-07-04T14:56:07;4.68;;;1.73;;
31130;SDS011;20292;50.944;4.034;2022-07-04T14:58:32;4.72;;;1.85;;
31130;SDS011;20292;50.944;4.034;2022-07-04T15:00:58;5.28;;;1.80;;
31130;SDS011;20292;50.944;4.034;2022-07-04T15:03:24;5.57;;;2.13;;
31130;SDS011;20292;50.944;4.034;2022-07-04T15:05:49;4.85;;;1.67;;
31130;SDS011;20292;50.944;4.034;2022-07-04T15:08:15;2.60;;;1.73;;
31130;SDS011;20292;50.944;4.034;2022-07-04T15:10:41;5.15;;;2.13;;
31130;SDS011;20292;50.944;4.034;2022-07-04T15:13:06;5.72;;;1.83;;
31130;SDS011;20292;50.944;4.034;2022-07-04T15:15:32;3.63;;;1.70;;
31130;SDS011;20292;50.944;4.034;2022-07-04T15:17:58;5.45;;;1.83;;
31130;SDS011;20292;50.944;4.034;2022-07-04T15:20:25;7.40;;;2.10;;
31130;SDS011;20292;50.944;4.034;2022-07-04T15:23:09;6.07;;;1.80;;
31130;SDS011;20292;50.944;4.034;2022-07-04T15:25:53;3.58;;;1.60;;
31130;SDS011;20292;50.944;4.034;2022-07-04T15:28:19;6.28;;;2.03;;
31130;SDS011;20292;50.944;4.034;2022-07-04T15:30:44;7.22;;;1.90;;
31130;SDS011;20292;50.944;4.034;2022-07-04T15:33:10;7.72;;;2.63;;
31130;SDS011;20292;50.944;4.034;2022-07-04T15:35:40;5.10;;;1.95;;
31130;SDS011;20292;50.944;4.034;2022-07-04T15:38:07;4.75;;;1.70;;
31130;SDS011;20292;50.944;4.034;2022-07-04T15:40:33;4.22;;;1.60;;